NWS Home NWS Lubbock West Texas Mesonet Latest Conditions as of 0846 PM, Sun Mar 29, 2020

Latest   N   C   S   Daily Sum   3hrΔ   24hrΔ   Soil Data 
Site Map   24hr Precip   72hr Precip   Google Plot


Station Time of Last Temp Dew Pt. RH Wind Direction Wind Speed Wind Gust Max Wind Max Temp Min Temp Max RH Min RH Altimeter 1HR Rain Today's Rain Solar Rad Red FlagRFTI
Abernathy 5ENE  08:40 PM 59 33 39% SE1215 23 mph 146° @ 0530 PM 67 33 81 19 30.08" 0 0 0   0
Adrian 6WSW  08:40 PM 53 25 33% SE1417 31 mph 189° @ 0422 PM 65 33 74 18 30.05" 0 0 0   0
Aiken 3WSW  08:40 PM 57 34 41% SE1012 28 mph 138° @ 0612 PM 69 29 84 15 30.09" 0 0 0   0
Amarillo 15NNW   08:40 PM 59 25 27% SE1215 26 mph 174° @ 0552 PM 69 29 95 17 30.04" 0 0 0   0
Amarillo 7SSE  08:40 PM 58 25 29% SE1417 26 mph 216° @ 0418 PM 68 27 92 18 30.07" 0 0 0   0
Amarillo 9NNE  08:40 PM 57 25 29% SE1112 25 mph 166° @ 0654 PM 68 25 94 17 30.04" 0 0 0   0
Amherst 1NE  08:40 PM 59 25 27% SE1317 28 mph 157° @ 0235 PM 69 33 74 14 30.05" 0 0 0   0
Andrews 2E  08:40 PM 62 29 29% E1216 24 mph 117° @ 0710 PM 70 39 57 16 30.04" 0 0 0   0
Anton 6SSW  08:40 PM 59 27 30% SE1418 28 mph 170° @ 0150 PM 68 32 74 15 30.06" 0 0 0   0
Aspermont 3NE  08:40 PM 62 43 50% E811 19 mph 345° @ 1235 AM 72 37 89 29 30.09" 0 0 0   0
Big Bend NP - Castolon  08:40 PM 81 45 28% SE1215 28 mph 128° @ 0725 PM 88 51 29 9 29.87" 0 0 0   0
Big Bend NP - Persimmon Gap  08:40 PM 72 32 23% N1618 29 mph 162° @ 0304 PM 84 59 27 7 29.96" 0 0 0   0
Big Lake 1WNW  08:40 PM 66 32 28% E1316 23 mph 123° @ 0444 PM 74 41 57 13 30.07" 0 0 0   0
Bootleg 11WNW  08:40 PM 55 22 28% S1418 30 mph 203° @ 0332 PM 66 30 79 17 30.06" 0 0 0   0
Boys Ranch 1WSW  08:40 PM 61 25 25% SE912 28 mph 179° @ 0530 PM 69 29 87 18 30.04" 0 0 0   0
Brownfield 2S  08:40 PM 59 30 33% SE1316 28 mph 158° @ 0610 PM 68 38 67 17 30.06" 0 0 0   0
Canadian 6E  08:40 PM 57 32 38% SE1416 23 mph 195° @ 0136 PM 68 28 97 20 30.06" 0 0 0   0
Caprock Canyons State Park  08:40 PM 57 37 47% SE89 24 mph 156° @ 0533 PM 70 35 85 21 30.09" 0 0 0   0
Childress 2NNE  08:40 PM 60 41 51% SE1011 23 mph 132° @ 0550 PM 71 37 80 24 30.08" 0 0 0   0
Clarendon 2WSW  08:40 PM 59 34 39% SE1417 22 mph 149° @ 0715 PM 68 33 82 25 30.08" 0 0 0   0
Claude 12SW  08:40 PM 58 31 36% SE1416 24 mph 142° @ 0430 PM 68 35 73 19 30.07" 0 0 0   0
Clyde 2WNW  08:40 PM 61 44 53% SE1014 21 mph 327° @ 0226 AM 70 43 79 23 30.10" 0 0 0   0
Colorado City 5NW  08:40 PM 64 31 29% SE1012 20 mph 10° @ 0252 AM 74 40 69 15 30.08" 0 0 0   0
Comanche Springs  08:40 PM 61 44 53% E68 19 mph 126° @ 0439 PM 69 31 94 31 30.08" 0 0 0   0
Coyanosa 2N  08:40 PM 68 32 26% E1922 32 mph 111° @ 0839 PM 79 36 65 11 29.97" 0 0 0   0
Crane 1NNW   08:40 PM 69 29 22% SE1517 27 mph 148° @ 0757 PM 75 39 60 10 30.02" 0 0 0   0
Crowell 1E  08:40 PM 63 45 52% SE710 15 mph 131° @ 0406 PM 70 43 73 36 30.09" 0 0 0   0
Dell City  08:40 PM 60 32 35% N66 12 mph 334° @ 0111 AM 72 34 83 15 29.99" 0 0 0   0
Denver City 7WNW  08:40 PM 59 22 24% SE1216 28 mph 157° @ 0510 PM 67 34 70 15 30.04" 0 0 0   0
Dimmitt 2NE  08:40 PM 56 31 39% SE1014 27 mph 182° @ 0340 PM 67 30 84 18 30.07" 0 0 0   0
Doole 3WNW  08:40 PM 64 41 43% E910 23 mph 351° @ 0505 AM 73 39 83 19 30.08" 0 0 0   0
Dora NM 2SW  08:40 PM 57 21 24% SE1215 28 mph 155° @ 0650 PM 69 33 57 11 30.04" 0 0 0 5 0
Dozier 3W  08:40 PM 60 39 47% SE1113 19 mph 182° @ 0326 PM 69 33 91 24 30.10" 0 0 0   0
Earth 9WSW  08:40 PM 59 26 28% SE1112 27 mph 160° @ 0625 PM 70 28 78 13 30.05" 0 0 0 4 0
Endee NM 2SW  08:40 PM 58 23 26% S1315 30 mph 166° @ 0612 PM 68 29 83 16 30.02" 0 0 0   0
Estelline 3SSE  08:40 PM 61 40 46% E78 19 mph 131° @ 0723 PM 72 38 75 22 30.08" 0 0 0   0
Floydada 2NNE  08:40 PM 56 34 43% SE810 19 mph 149° @ 0350 PM 69 30 85 15 30.08" 0 0 0   0
Fluvanna 3WNW  08:40 PM 61 30 30% SE1316 22 mph 132° @ 0405 PM 70 41 67 18 30.07" 0 0 0   0
Fort Chadbourne  08:40 PM 63 38 40% E811 19 mph 123° @ 0501 PM 70 37 87 23 30.09" 0 0 0   0
Fort Lancaster  03:15 AM 46 16 29% N11 9 mph 11° @ 0254 AM 47 40 38 26 30.11" 0 0 0   0
Fort Lewis CO  05:40 PM 45 20 36% E35 23 mph 88° @ 0359 PM 46 22 80 35 30.05" 0 0 404   0
Fort McKavett  08:40 PM 62 39 43% E78 17 mph 93° @ 0619 PM 72 35 90 20 30.09" 0 0 0   0
Friona 2NE  08:40 PM 55 24 31% SE1214 29 mph 159° @ 0515 PM 67 26 92 17 30.06" 0 0 0   0
Fritch 1WNW  08:40 PM 59 31 35% SE1216 28 mph 193° @ 0525 PM 68 33 83 17 30.04" 0 0 0   0
Gail 2ESE  08:40 PM 60 28 30% SE913 20 mph 138° @ 0355 PM 71 37 73 18 30.06" 0 0 0   0
Goodlett 3W  08:40 PM 60 44 57% E89 20 mph 131° @ 0455 PM 70 40 79 28 30.07" 0 0 0   0
Goodnight  08:40 PM 58 33 39% SE1618 26 mph 141° @ 0737 PM 67 30 100 28 30.09" 0 0 0   0
Graham 5SSW  08:40 PM 61 27 27% SE1316 25 mph 151° @ 0650 PM 69 42 60 15 30.08" 0 0 0   0
Guadalupe Mtns Natl Park  08:40 PM 55 20 25% N67 13 mph 107° @ 0453 PM 63 40 31 15 30.09" 0 0 0   0
Guthrie 10WSW  08:40 PM 60 38 44% SE910 21 mph 129° @ 0435 PM 71 39 74 25 30.08" 0 0 0   0
Hackberry 2SSE  08:40 PM 61 45 54% E910 18 mph 89° @ 0358 PM 70 39 82 31 30.08" 0 0 0   0
Happy 1E  08:40 PM 57 30 36% SE1315 29 mph 191° @ 0316 PM 68 30 82 19 30.08" 0 0 0   0
Hart 3N  08:40 PM 56 30 37% SE1115 25 mph 143° @ 0655 PM 68 29 92 16 30.07" 0 0 0   0
Haskell 1NW  08:40 PM 63 44 52% SE913 22 mph 29° @ 0105 AM 71 41 89 32 30.08" 0 0 0   0
Hefner 1SW  08:40 PM 61 46 56% SE810 18 mph 14° @ 1202 AM 70 42 89 38 30.09" 0 0 0   0
Hereford 2NW  08:40 PM 57 28 33% SE1115 24 mph 174° @ 0505 PM 66 26 89 18 30.05" 0 0 0   0
Hobbs NM 5NW  08:40 PM 61 24 24% SE1317 23 mph 159° @ 0546 PM 67 37 67 13 30.06" 0 0 0   0
Jayton 1SSE  08:40 PM 62 42 49% SE912 22 mph 135° @ 0525 PM 71 38 85 25 30.08" 0 0 0   0
Junction 1SSW  08:40 PM 70 37 30% SE56 17 mph 149° @ 0746 PM 76 35 98 20 30.08" 0 0 0   0
Kent 9E  08:40 PM 67 32 27% NW56 22 mph 74° @ 1253 PM 76 40 32 12 29.99" 0 0 0   0
Knox City 3NW  08:40 PM 61 47 62% SE78 15 mph 117° @ 0540 PM 71 38 94 41 30.09" 0 0 0   0
Lake Alan Henry 1NW  08:40 PM 61 37 40% SE67 20 mph 117° @ 0344 PM 73 39 81 23 30.07" 0 0 0   0
Lake McClellan 2NW  08:40 PM 58 31 37% SE1214 22 mph 136° @ 0713 PM 67 31 86 23 30.09" 0 0 0   0
Lamesa 2SE  08:40 PM 60 27 29% E1015 25 mph 152° @ 0410 PM 71 38 71 16 30.06" 0 0 0   0
Lesley 2S  08:40 PM 61 39 43% SE1416 24 mph 136° @ 0728 PM 72 35 81 22 30.07" 0 0 0   0
Levelland 4S  08:40 PM 60 26 28% SE1417 26 mph 169° @ 0435 PM 68 36 67 15 30.06" 0 0 0   0
Lomax 1SSE  08:40 PM 63 32 31% E1416 24 mph 125° @ 0554 PM 72 35 68 14 30.06" 0 0 0   0
Lubbock 3WNW TTU  08:40 PM 62 26 26% SE1318 26 mph 154° @ 0310 PM 69 35 73 17 30.07" 0 0 0   0
McAdoo 3NNW  08:40 PM 59 33 37% SE1014 24 mph 51° @ 1251 AM 68 38 77 22 30.11" 0 0 0   0
McCamey 1SSW  08:40 PM 68 28 22% SE1517 32 mph 125° @ 0239 PM 75 41 61 13 30.03" 0 0 0   0
McLean 1E  08:40 PM 57 36 46% SE1317 22 mph 130° @ 0820 PM 66 34 81 23 30.08" 0 0 0   0
Memphis 1NE  08:40 PM 60 39 47% SE912 22 mph 119° @ 0725 PM 70 33 88 22 30.08" 0 0 0   0
Menard 2NW   08:40 PM 62 41 47% E810 19 mph 84° @ 0146 PM 70 36 92 27 30.08" 0 0 0   0
Mertzon 3NNE  08:40 PM 63 31 30% E57 18 mph 125° @ 0234 PM 73 35 85 16 30.08" 0 0 0   0
Morton 1ENE  08:40 PM 61 21 21% SE1417 26 mph 158° @ 0235 PM 69 33 60 11 30.05" 0 0 0   0
Muleshoe 2SSW  08:40 PM 59 25 26% SE1317 28 mph 168° @ 0330 PM 69 27 89 12 30.05" 0 0 0   0
New Home  08:40 PM 58 25 28% SE1012 22 mph 183° @ 0244 PM 68 38 65 17 30.08" 0 0 0   0
Northfield 1S  08:40 PM 60 39 46% E69 21 mph 136° @ 0435 PM 72 33 85 22 30.08" 0 0 0   0
O'Donnell 1N  08:40 PM 60 26 27% SE1218 22 mph 144° @ 0435 PM 69 38 67 19 30.07" 0 0 0   0
Odell 4ENE  08:40 PM 61 45 56% SE67 18 mph 145° @ 0519 PM 69 37 92 31 30.10" 0 0 0   0
Olton 6S  08:40 PM 56 30 38% SE1113 26 mph 152° @ 0510 PM 68 29 88 17 30.07" 0 0 0   0
Paducah 10SW  08:40 PM 62 41 47% SE1114 19 mph 123° @ 0455 PM 70 41 72 27 30.08" 0 0 0   0
Palo Duro 4E (JA Ranch)  08:40 PM 58 36 43% SE1112 24 mph 134° @ 0712 PM 69 29 91 25 30.08" 0 0 0   0
Palo Duro Canyon SP Floor  08:40 PM 64 28 26% SE1418 25 mph 142° @ 0838 PM 72 32 79 15 30.06" 0 0 0   0
Palo Duro Canyon State Park Rim  08:40 PM 61 25 26% S1421 24 mph 168° @ 0733 PM 70 32 75 17 30.08" 0 0 0   0
Palo Duro Reservoir 1NW   08:40 PM 55 30 38% SE1113 27 mph 171° @ 0334 PM 67 27 88 19 30.05" 0 0 0   0
Pampa 2E  08:40 PM 56 31 39% SE1216 24 mph 174° @ 1235 PM 65 31 85 25 30.08" 0 0 0   0
Panhandle 1SSW  08:40 PM 56 31 39% SE1417 28 mph 173° @ 0550 PM 67 29 92 21 30.08" 0 0 0   0
Plains 3N  08:40 PM 58 25 28% SE1114 25 mph 154° @ 0135 PM 67 34 68 17 30.05" 0 0 0   0
Plainview 1S  08:40 PM 58 34 42% SE710 23 mph 157° @ 0310 PM 68 35 80 19 30.07" 0 0 0   0
Post 1NE  08:40 PM 60 36 42% SE710 21 mph 143° @ 0645 PM 72 41 60 15 30.08" 0 0 0   0
Ralls 1SE  08:40 PM 59 31 35% SE1417 23 mph 139° @ 0325 PM 66 34 75 19 30.09" 0 0 0   0
Reese Center  08:40 PM 60 24 25% SE1315 31 mph 171° @ 0136 PM 69 35 71 15 30.06" 0 0 0   0
Roaring Springs 3N  08:40 PM 60 41 50% SE1011 19 mph 166° @ 1255 PM 68 37 87 25 30.09" 0 0 0   0
Romero 11SSW  08:40 PM 58 22 25% SE1012 28 mph 206° @ 0513 PM 68 30 77 16 30.01" 0 0 0   0
Rotan 5W  08:40 PM 63 32 31% E1113 26 mph 338° @ 0125 AM 70 44 72 25 30.08" 0 0 0   0
San Angelo 7NW  08:40 PM 66 29 26% E1013 20 mph 98° @ 0705 PM 72 37 72 16 30.07" 0 0 0   0
Seagraves 1SW  08:40 PM 60 24 25% SE812 25 mph 159° @ 0430 PM 69 33 69 17 30.05" 0 0 0   0
Segovia 7SSW  08:40 PM 67 37 32% SE1114 22 mph 129° @ 0724 PM 75 45 62 16 30.09" 0 0 0   0
Seminole 2NNE  08:40 PM 58 24 27% E810 25 mph 129° @ 0700 PM 69 37 62 15 30.05" 0 0 0   0
Seymour 3NW  08:40 PM 59 47 67% SE68 15 mph 114° @ 0515 PM 70 40 95 40 30.09" 0 0 0   0
Sierra Blanca 1SSE  08:40 PM 65 24 21% N78 21 mph 165° @ 0238 PM 74 39 42 11 30.01" 0 0 0   0
Silverton 7ESE  08:40 PM 57 36 46% SE1114 23 mph 145° @ 0450 PM 69 28 88 18 30.09" 0 0 0   0
Slaton 2NE  08:40 PM 58 37 45% SE1014 22 mph 152° @ 0655 PM 67 38 74 23 30.08" 0 0 0   0
Smyer  08:40 PM 60 26 27% SE913 24 mph 158° @ 0241 PM 69 37 66 14 30.07" 0 0 0   0
Snyder 3E  08:40 PM 61 27 27% SE1114 23 mph 3° @ 0210 AM 73 40 71 18 30.07" 0 0 0   0
Snyder 3SSW  08:40 PM 60 32 34% SE67 20 mph 145° @ 0511 PM 72 43 72 18 30.08" 0 0 0   0
South Plains 3ENE  08:40 PM 55 36 49% SE89 32 mph 139° @ 0359 PM 69 29 90 18 30.09" 0 0 0   0
Spur 1W  08:40 PM 60 37 44% SE58 19 mph 147° @ 0645 PM 69 36 82 28 30.07" 0 0 0   0
St. Lawrence 5SW  08:40 PM 64 28 26% E1620 26 mph 112° @ 0610 PM 73 40 62 16 30.05" 0 0 0   0
Stamford 5ESE  08:40 PM 61 48 63% SE77 25 mph 39° @ 0158 AM 70 42 92 36 30.10" 0 0 0   0
Sterling City 4WSW  08:40 PM 63 31 30% E911 21 mph 100° @ 0536 PM 71 31 95 18 30.08" 0 0 0   0
Stinnett 1NNW  08:40 PM 58 31 35% SE1214 26 mph 187° @ 0550 PM 67 33 82 18 30.06" 0 0 0   0
Stratford 4WNW  08:40 PM 53 26 35% S1213 29 mph 217° @ 0540 PM 66 25 83 21 30.03" 0 0 0   0
Sundown 8WSW  08:40 PM 57 22 25% SE1013 28 mph 151° @ 0310 PM 70 34 64 11 30.05" 0 0 0   0
Sweetwater 11SW   08:40 PM 61 33 35% E1012 21 mph 129° @ 0702 PM 70 42 72 18 30.09" 0 0 0   0
Tahoka 3NNE  08:40 PM 60 25 26% SE1518 25 mph 134° @ 0708 PM 69 36 68 19 30.07" 0 0 0   0
Tarzan 2WNW  08:40 PM 63 31 30% E1517 24 mph 111° @ 0530 PM 72 39 61 16 30.05" 0 0 0   0
Tatum NM 2SW  08:40 PM 57 26 30% SE1316 28 mph 166° @ 0350 PM 68 33 73 15 30.04" 0 0 0   0
Throckmorton 1SW  08:40 PM 61 46 57% SE810 21 mph 330° @ 1232 AM 71 44 89 37 30.10" 0 0 0   0
Truscott 2SE  08:40 PM 62 45 54% SE67 17 mph 14° @ 1208 AM 70 40 88 35 30.08" 0 0 0   0
Tulia 2ENE  06:50 PM 63 27 26% SE1722 24 mph 177° @ 0450 PM 67 27 83 20 30.05" 0 0 141   0
Turkey 2WSW  08:40 PM 60 38 45% E810 24 mph 125° @ 0600 PM 70 38 71 22 30.08" 0 0 0   0
Umbarger 3NNE  08:40 PM 56 28 35% SE1214 25 mph 169° @ 0652 PM 68 24 91 17 30.07" 0 0 0   0
Van Horn 3ENE  08:40 PM 68 23 18% N67 19 mph 193° @ 0457 PM 78 36 43 12 29.99" 0 0 0   0
Vigo Park  08:40 PM 56 31 38% SE1112 29 mph 155° @ 0352 PM 69 27 90 19 30.08" 0 0 0   0
Wall 2E  08:40 PM 64 35 33% E911 31 mph 360° @ 0541 AM 74 39 72 18 30.09" 0 0 0   0
Weinert 2NNE  08:40 PM 63 43 47% SE1215 25 mph 8° @ 1209 AM 71 41 84 32 30.09" 0 0 0   0
Welch  08:40 PM 59 31 34% SE911 25 mph 137° @ 0459 PM 71 35 69 15 30.07" 0 0 0   0
White River Lake 6NW  08:40 PM 59 36 43% SE811 22 mph 111° @ 0635 PM 69 39 68 21 30.08" 0 0 0   0
Wolfforth 6SSW  08:40 PM 58 26 30% SE1112 25 mph 159° @ 0240 PM 69 36 68 15 30.07" 0 0 0   0

West Texas Mesonet Home   Site Map/Menu  NWS Lubbock Soil Data  Daily Summary Page  24hr Precip  72hr Precip  Google Plot